sensor_id;sensor_type;location;lat;lon;timestamp;P1;durP1;ratioP1;P2;durP2;ratioP2
58896;SDS011;44677;52.378;10.400;2023-06-22T00:02:17;12.50;;;11.30;;
58896;SDS011;44677;52.378;10.400;2023-06-22T00:04:43;12.50;;;11.30;;
58896;SDS011;44677;52.378;10.400;2023-06-22T00:07:08;12.00;;;10.70;;
58896;SDS011;44677;52.378;10.400;2023-06-22T00:09:34;11.40;;;10.30;;
58896;SDS011;44677;52.378;10.400;2023-06-22T00:11:59;12.10;;;10.80;;
58896;SDS011;44677;52.378;10.400;2023-06-22T00:14:25;12.10;;;10.10;;
58896;SDS011;44677;52.378;10.400;2023-06-22T00:16:50;14.90;;;11.10;;
58896;SDS011;44677;52.378;10.400;2023-06-22T00:19:20;12.20;;;11.00;;
58896;SDS011;44677;52.378;10.400;2023-06-22T00:21:48;12.20;;;11.00;;
58896;SDS011;44677;52.378;10.400;2023-06-22T00:24:20;12.90;;;11.10;;
58896;SDS011;44677;52.378;10.400;2023-06-22T00:26:47;11.60;;;10.50;;
58896;SDS011;44677;52.378;10.400;2023-06-22T00:29:13;13.40;;;10.60;;
58896;SDS011;44677;52.378;10.400;2023-06-22T00:31:38;16.40;;;10.80;;
58896;SDS011;44677;52.378;10.400;2023-06-22T00:34:04;18.00;;;11.30;;
58896;SDS011;44677;52.378;10.400;2023-06-22T00:36:34;16.90;;;11.60;;
58896;SDS011;44677;52.378;10.400;2023-06-22T00:38:59;16.80;;;11.40;;
58896;SDS011;44677;52.378;10.400;2023-06-22T00:41:25;11.60;;;10.00;;
58896;SDS011;44677;52.378;10.400;2023-06-22T00:43:53;14.60;;;11.70;;
58896;SDS011;44677;52.378;10.400;2023-06-22T00:46:19;11.50;;;10.40;;
58896;SDS011;44677;52.378;10.400;2023-06-22T00:48:46;12.40;;;10.60;;
58896;SDS011;44677;52.378;10.400;2023-06-22T00:51:11;11.70;;;10.60;;
58896;SDS011;44677;52.378;10.400;2023-06-22T00:53:37;20.30;;;11.90;;
58896;SDS011;44677;52.378;10.400;2023-06-22T00:56:03;15.90;;;11.50;;
58896;SDS011;44677;52.378;10.400;2023-06-22T00:58:30;16.10;;;11.10;;
58896;SDS011;44677;52.378;10.400;2023-06-22T01:00:56;18.80;;;12.10;;
58896;SDS011;44677;52.378;10.400;2023-06-22T01:03:21;16.00;;;11.20;;
58896;SDS011;44677;52.378;10.400;2023-06-22T01:05:47;13.10;;;10.70;;
58896;SDS011;44677;52.378;10.400;2023-06-22T01:10:53;14.30;;;10.90;;
58896;SDS011;44677;52.378;10.400;2023-06-22T01:16:08;12.20;;;10.50;;
58896;SDS011;44677;52.378;10.400;2023-06-22T01:18:37;13.00;;;11.60;;
58896;SDS011;44677;52.378;10.400;2023-06-22T01:21:06;13.00;;;11.70;;
58896;SDS011;44677;52.378;10.400;2023-06-22T01:26:35;12.50;;;11.20;;
58896;SDS011;44677;52.378;10.400;2023-06-22T01:29:05;12.70;;;11.50;;
58896;SDS011;44677;52.378;10.400;2023-06-22T01:31:32;12.90;;;11.60;;
58896;SDS011;44677;52.378;10.400;2023-06-22T01:34:01;12.60;;;11.30;;
58896;SDS011;44677;52.378;10.400;2023-06-22T01:36:29;12.50;;;11.20;;
58896;SDS011;44677;52.378;10.400;2023-06-22T01:38:55;12.70;;;11.40;;
58896;SDS011;44677;52.378;10.400;2023-06-22T01:41:24;12.30;;;11.10;;
58896;SDS011;44677;52.378;10.400;2023-06-22T01:43:50;14.90;;;11.80;;
58896;SDS011;44677;52.378;10.400;2023-06-22T01:46:19;16.50;;;11.50;;
58896;SDS011;44677;52.378;10.400;2023-06-22T01:48:45;17.20;;;11.70;;
58896;SDS011;44677;52.378;10.400;2023-06-22T01:51:10;16.50;;;11.70;;
58896;SDS011;44677;52.378;10.400;2023-06-22T01:53:38;14.10;;;11.40;;
58896;SDS011;44677;52.378;10.400;2023-06-22T01:56:04;14.10;;;10.90;;
58896;SDS011;44677;52.378;10.400;2023-06-22T01:58:29;14.60;;;11.30;;
58896;SDS011;44677;52.378;10.400;2023-06-22T02:03:44;13.30;;;10.70;;
58896;SDS011;44677;52.378;10.400;2023-06-22T02:06:21;14.80;;;11.40;;
58896;SDS011;44677;52.378;10.400;2023-06-22T02:08:51;14.70;;;10.70;;
58896;SDS011;44677;52.378;10.400;2023-06-22T02:11:20;14.90;;;11.80;;
58896;SDS011;44677;52.378;10.400;2023-06-22T02:13:46;14.30;;;11.50;;
58896;SDS011;44677;52.378;10.400;2023-06-22T02:16:13;13.20;;;10.40;;
58896;SDS011;44677;52.378;10.400;2023-06-22T02:21:11;15.10;;;10.70;;
58896;SDS011;44677;52.378;10.400;2023-06-22T02:23:36;13.50;;;11.10;;
58896;SDS011;44677;52.378;10.400;2023-06-22T02:26:02;12.60;;;10.80;;
58896;SDS011;44677;52.378;10.400;2023-06-22T02:28:28;12.50;;;10.70;;
58896;SDS011;44677;52.378;10.400;2023-06-22T02:30:54;15.30;;;10.60;;
58896;SDS011;44677;52.378;10.400;2023-06-22T02:33:19;15.50;;;11.20;;
58896;SDS011;44677;52.378;10.400;2023-06-22T02:35:45;16.10;;;11.20;;
58896;SDS011;44677;52.378;10.400;2023-06-22T02:38:14;17.80;;;11.70;;
58896;SDS011;44677;52.378;10.400;2023-06-22T02:40:39;15.40;;;12.00;;
58896;SDS011;44677;52.378;10.400;2023-06-22T02:43:05;15.80;;;11.60;;
58896;SDS011;44677;52.378;10.400;2023-06-22T02:45:30;20.70;;;12.00;;
58896;SDS011;44677;52.378;10.400;2023-06-22T02:47:56;14.90;;;11.20;;
58896;SDS011;44677;52.378;10.400;2023-06-22T02:50:22;13.00;;;11.00;;
58896;SDS011;44677;52.378;10.400;2023-06-22T02:52:48;16.30;;;11.10;;
58896;SDS011;44677;52.378;10.400;2023-06-22T02:55:13;16.60;;;11.70;;
58896;SDS011;44677;52.378;10.400;2023-06-22T02:57:40;12.90;;;11.60;;
58896;SDS011;44677;52.378;10.400;2023-06-22T03:00:09;16.60;;;12.40;;
58896;SDS011;44677;52.378;10.400;2023-06-22T03:02:46;13.80;;;12.20;;
58896;SDS011;44677;52.378;10.400;2023-06-22T03:05:13;13.20;;;11.70;;
58896;SDS011;44677;52.378;10.400;2023-06-22T03:10:08;14.60;;;12.10;;
58896;SDS011;44677;52.378;10.400;2023-06-22T03:12:35;17.40;;;12.20;;
58896;SDS011;44677;52.378;10.400;2023-06-22T03:15:00;20.10;;;12.80;;
58896;SDS011;44677;52.378;10.400;2023-06-22T03:17:26;14.60;;;13.00;;
58896;SDS011;44677;52.378;10.400;2023-06-22T03:19:51;17.50;;;12.70;;
58896;SDS011;44677;52.378;10.400;2023-06-22T03:22:16;15.10;;;12.10;;
58896;SDS011;44677;52.378;10.400;2023-06-22T03:24:42;14.10;;;12.30;;
58896;SDS011;44677;52.378;10.400;2023-06-22T03:27:07;14.30;;;12.10;;
58896;SDS011;44677;52.378;10.400;2023-06-22T03:29:33;20.80;;;12.10;;
58896;SDS011;44677;52.378;10.400;2023-06-22T03:31:59;15.70;;;12.20;;
58896;SDS011;44677;52.378;10.400;2023-06-22T03:34:25;14.70;;;11.70;;
58896;SDS011;44677;52.378;10.400;2023-06-22T03:36:51;15.30;;;11.80;;
58896;SDS011;44677;52.378;10.400;2023-06-22T03:39:17;14.20;;;11.70;;
58896;SDS011;44677;52.378;10.400;2023-06-22T03:41:42;14.90;;;11.60;;
58896;SDS011;44677;52.378;10.400;2023-06-22T03:44:08;17.40;;;11.50;;
58896;SDS011;44677;52.378;10.400;2023-06-22T03:46:37;15.40;;;11.90;;
58896;SDS011;44677;52.378;10.400;2023-06-22T03:49:03;18.60;;;12.80;;
58896;SDS011;44677;52.378;10.400;2023-06-22T03:51:29;18.30;;;13.10;;
58896;SDS011;44677;52.378;10.400;2023-06-22T03:53:54;14.80;;;12.00;;
58896;SDS011;44677;52.378;10.400;2023-06-22T03:56:20;15.80;;;12.20;;
58896;SDS011;44677;52.378;10.400;2023-06-22T03:58:46;14.70;;;11.50;;
58896;SDS011;44677;52.378;10.400;2023-06-22T04:01:11;15.50;;;11.50;;
58896;SDS011;44677;52.378;10.400;2023-06-22T04:03:37;15.50;;;11.00;;
58896;SDS011;44677;52.378;10.400;2023-06-22T04:06:03;15.30;;;11.80;;
58896;SDS011;44677;52.378;10.400;2023-06-22T04:08:29;14.20;;;11.70;;
58896;SDS011;44677;52.378;10.400;2023-06-22T04:10:54;14.40;;;11.40;;
58896;SDS011;44677;52.378;10.400;2023-06-22T04:13:20;14.00;;;11.40;;
58896;SDS011;44677;52.378;10.400;2023-06-22T04:15:45;12.10;;;10.90;;
58896;SDS011;44677;52.378;10.400;2023-06-22T04:18:10;12.20;;;11.00;;
58896;SDS011;44677;52.378;10.400;2023-06-22T04:20:36;11.70;;;10.50;;
58896;SDS011;44677;52.378;10.400;2023-06-22T04:23:01;10.80;;;9.70;;
58896;SDS011;44677;52.378;10.400;2023-06-22T04:25:27;13.50;;;10.30;;
58896;SDS011;44677;52.378;10.400;2023-06-22T04:27:52;10.60;;;9.50;;
58896;SDS011;44677;52.378;10.400;2023-06-22T04:30:17;10.00;;;9.00;;
58896;SDS011;44677;52.378;10.400;2023-06-22T04:32:43;9.70;;;8.80;;
58896;SDS011;44677;52.378;10.400;2023-06-22T04:35:10;12.50;;;9.90;;
58896;SDS011;44677;52.378;10.400;2023-06-22T04:37:36;13.60;;;12.00;;
58896;SDS011;44677;52.378;10.400;2023-06-22T04:40:01;14.30;;;12.30;;
58896;SDS011;44677;52.378;10.400;2023-06-22T04:42:29;16.50;;;11.50;;
58896;SDS011;44677;52.378;10.400;2023-06-22T04:44:55;12.50;;;10.50;;
58896;SDS011;44677;52.378;10.400;2023-06-22T04:47:21;10.10;;;9.10;;
58896;SDS011;44677;52.378;10.400;2023-06-22T04:49:46;10.30;;;9.30;;
58896;SDS011;44677;52.378;10.400;2023-06-22T04:52:12;10.40;;;9.10;;
58896;SDS011;44677;52.378;10.400;2023-06-22T04:54:39;11.80;;;8.90;;
58896;SDS011;44677;52.378;10.400;2023-06-22T04:57:12;10.50;;;9.40;;
58896;SDS011;44677;52.378;10.400;2023-06-22T04:59:38;9.90;;;8.80;;
58896;SDS011;44677;52.378;10.400;2023-06-22T05:02:06;9.70;;;8.60;;
58896;SDS011;44677;52.378;10.400;2023-06-22T05:04:32;9.80;;;8.80;;
58896;SDS011;44677;52.378;10.400;2023-06-22T05:07:01;9.30;;;8.40;;
58896;SDS011;44677;52.378;10.400;2023-06-22T05:09:27;10.20;;;8.00;;
58896;SDS011;44677;52.378;10.400;2023-06-22T05:11:53;9.30;;;8.40;;
58896;SDS011;44677;52.378;10.400;2023-06-22T05:14:19;9.60;;;8.70;;
58896;SDS011;44677;52.378;10.400;2023-06-22T05:16:45;9.40;;;8.40;;
58896;SDS011;44677;52.378;10.400;2023-06-22T05:19:10;10.20;;;8.30;;
58896;SDS011;44677;52.378;10.400;2023-06-22T05:21:36;9.40;;;8.50;;
58896;SDS011;44677;52.378;10.400;2023-06-22T05:24:02;9.40;;;8.20;;
58896;SDS011;44677;52.378;10.400;2023-06-22T05:26:31;9.50;;;8.40;;
58896;SDS011;44677;52.378;10.400;2023-06-22T05:28:57;9.30;;;8.40;;
58896;SDS011;44677;52.378;10.400;2023-06-22T05:31:23;9.10;;;8.20;;
58896;SDS011;44677;52.378;10.400;2023-06-22T05:33:51;9.30;;;8.40;;
58896;SDS011;44677;52.378;10.400;2023-06-22T05:36:17;9.30;;;7.60;;
58896;SDS011;44677;52.378;10.400;2023-06-22T05:38:45;8.60;;;7.90;;
58896;SDS011;44677;52.378;10.400;2023-06-22T05:41:10;10.20;;;8.40;;
58896;SDS011;44677;52.378;10.400;2023-06-22T05:43:36;9.20;;;8.30;;
58896;SDS011;44677;52.378;10.400;2023-06-22T05:46:02;10.10;;;8.10;;
58896;SDS011;44677;52.378;10.400;2023-06-22T05:48:29;8.50;;;7.80;;
58896;SDS011;44677;52.378;10.400;2023-06-22T05:50:55;9.40;;;8.50;;
58896;SDS011;44677;52.378;10.400;2023-06-22T05:53:20;8.30;;;7.40;;
58896;SDS011;44677;52.378;10.400;2023-06-22T05:55:46;10.20;;;7.00;;
58896;SDS011;44677;52.378;10.400;2023-06-22T05:58:11;9.20;;;7.40;;
58896;SDS011;44677;52.378;10.400;2023-06-22T06:03:03;8.70;;;7.70;;
58896;SDS011;44677;52.378;10.400;2023-06-22T06:05:29;7.90;;;7.10;;
58896;SDS011;44677;52.378;10.400;2023-06-22T06:10:21;7.70;;;6.90;;
58896;SDS011;44677;52.378;10.400;2023-06-22T06:12:46;8.40;;;7.60;;
58896;SDS011;44677;52.378;10.400;2023-06-22T06:15:12;9.70;;;7.40;;
58896;SDS011;44677;52.378;10.400;2023-06-22T06:17:50;12.80;;;7.50;;
58896;SDS011;44677;52.378;10.400;2023-06-22T06:20:21;8.30;;;7.30;;
58896;SDS011;44677;52.378;10.400;2023-06-22T06:22:47;9.30;;;7.50;;
58896;SDS011;44677;52.378;10.400;2023-06-22T06:25:13;10.20;;;7.90;;
58896;SDS011;44677;52.378;10.400;2023-06-22T06:27:45;8.90;;;7.20;;
58896;SDS011;44677;52.378;10.400;2023-06-22T06:30:12;8.10;;;7.30;;
58896;SDS011;44677;52.378;10.400;2023-06-22T06:32:38;7.80;;;7.00;;
58896;SDS011;44677;52.378;10.400;2023-06-22T06:35:08;10.00;;;7.20;;
58896;SDS011;44677;52.378;10.400;2023-06-22T06:37:35;7.80;;;7.10;;
58896;SDS011;44677;52.378;10.400;2023-06-22T06:40:03;8.60;;;7.00;;
58896;SDS011;44677;52.378;10.400;2023-06-22T06:42:30;10.80;;;7.70;;
58896;SDS011;44677;52.378;10.400;2023-06-22T06:44:56;8.10;;;7.30;;
58896;SDS011;44677;52.378;10.400;2023-06-22T06:47:22;8.20;;;7.00;;
58896;SDS011;44677;52.378;10.400;2023-06-22T06:49:47;8.30;;;7.50;;
58896;SDS011;44677;52.378;10.400;2023-06-22T06:52:12;7.80;;;7.00;;
58896;SDS011;44677;52.378;10.400;2023-06-22T06:54:38;7.80;;;6.90;;
58896;SDS011;44677;52.378;10.400;2023-06-22T06:57:03;7.90;;;7.20;;
58896;SDS011;44677;52.378;10.400;2023-06-22T06:59:29;9.60;;;7.20;;
58896;SDS011;44677;52.378;10.400;2023-06-22T07:01:55;9.20;;;8.10;;
58896;SDS011;44677;52.378;10.400;2023-06-22T07:04:21;8.20;;;7.40;;
58896;SDS011;44677;52.378;10.400;2023-06-22T07:06:46;10.00;;;7.60;;
58896;SDS011;44677;52.378;10.400;2023-06-22T07:09:12;8.70;;;7.30;;
58896;SDS011;44677;52.378;10.400;2023-06-22T07:11:37;9.00;;;7.40;;
58896;SDS011;44677;52.378;10.400;2023-06-22T07:14:02;8.20;;;7.10;;
58896;SDS011;44677;52.378;10.400;2023-06-22T07:16:28;9.20;;;7.40;;
58896;SDS011;44677;52.378;10.400;2023-06-22T07:18:55;8.90;;;7.30;;
58896;SDS011;44677;52.378;10.400;2023-06-22T07:21:20;10.40;;;7.50;;
58896;SDS011;44677;52.378;10.400;2023-06-22T07:23:46;8.10;;;7.20;;
58896;SDS011;44677;52.378;10.400;2023-06-22T07:26:11;7.70;;;7.00;;
58896;SDS011;44677;52.378;10.400;2023-06-22T07:28:38;9.70;;;6.80;;
58896;SDS011;44677;52.378;10.400;2023-06-22T07:31:05;8.30;;;7.50;;
58896;SDS011;44677;52.378;10.400;2023-06-22T07:33:31;10.80;;;7.50;;
58896;SDS011;44677;52.378;10.400;2023-06-22T07:35:57;7.80;;;7.10;;
58896;SDS011;44677;52.378;10.400;2023-06-22T07:38:22;7.40;;;6.60;;
58896;SDS011;44677;52.378;10.400;2023-06-22T07:40:47;8.50;;;7.50;;
58896;SDS011;44677;52.378;10.400;2023-06-22T07:43:13;8.50;;;7.50;;
58896;SDS011;44677;52.378;10.400;2023-06-22T07:45:38;13.60;;;7.50;;
58896;SDS011;44677;52.378;10.400;2023-06-22T07:48:06;9.30;;;7.40;;
58896;SDS011;44677;52.378;10.400;2023-06-22T07:50:32;8.50;;;7.20;;
58896;SDS011;44677;52.378;10.400;2023-06-22T07:52:57;9.50;;;7.20;;
58896;SDS011;44677;52.378;10.400;2023-06-22T07:55:22;8.20;;;7.20;;
58896;SDS011;44677;52.378;10.400;2023-06-22T07:57:48;8.40;;;7.50;;
58896;SDS011;44677;52.378;10.400;2023-06-22T08:00:14;8.30;;;7.50;;
58896;SDS011;44677;52.378;10.400;2023-06-22T08:02:42;8.40;;;7.60;;
58896;SDS011;44677;52.378;10.400;2023-06-22T08:05:09;8.10;;;7.30;;
58896;SDS011;44677;52.378;10.400;2023-06-22T08:07:36;8.20;;;6.90;;
58896;SDS011;44677;52.378;10.400;2023-06-22T08:10:03;8.60;;;7.70;;
58896;SDS011;44677;52.378;10.400;2023-06-22T08:12:29;9.60;;;8.00;;
58896;SDS011;44677;52.378;10.400;2023-06-22T08:14:55;10.00;;;8.30;;
58896;SDS011;44677;52.378;10.400;2023-06-22T08:17:22;11.90;;;8.60;;
58896;SDS011;44677;52.378;10.400;2023-06-22T08:22:13;10.00;;;8.60;;
58896;SDS011;44677;52.378;10.400;2023-06-22T08:24:39;9.80;;;8.70;;
58896;SDS011;44677;52.378;10.400;2023-06-22T08:27:06;9.20;;;8.30;;
58896;SDS011;44677;52.378;10.400;2023-06-22T08:29:34;9.40;;;8.50;;
58896;SDS011;44677;52.378;10.400;2023-06-22T08:31:59;9.30;;;8.40;;
58896;SDS011;44677;52.378;10.400;2023-06-22T08:34:24;11.20;;;8.80;;
58896;SDS011;44677;52.378;10.400;2023-06-22T08:36:53;12.60;;;9.20;;
58896;SDS011;44677;52.378;10.400;2023-06-22T08:39:19;10.10;;;9.00;;
58896;SDS011;44677;52.378;10.400;2023-06-22T08:41:45;11.10;;;9.70;;
58896;SDS011;44677;52.378;10.400;2023-06-22T08:46:37;9.70;;;8.80;;
58896;SDS011;44677;52.378;10.400;2023-06-22T08:49:04;10.20;;;9.10;;
58896;SDS011;44677;52.378;10.400;2023-06-22T08:51:29;11.60;;;10.40;;
58896;SDS011;44677;52.378;10.400;2023-06-22T08:53:54;11.20;;;9.60;;
58896;SDS011;44677;52.378;10.400;2023-06-22T08:56:20;11.80;;;9.30;;
58896;SDS011;44677;52.378;10.400;2023-06-22T08:58:45;12.30;;;9.20;;
58896;SDS011;44677;52.378;10.400;2023-06-22T09:01:11;11.30;;;10.20;;
58896;SDS011;44677;52.378;10.400;2023-06-22T09:03:36;11.70;;;10.40;;
58896;SDS011;44677;52.378;10.400;2023-06-22T09:06:02;12.00;;;10.40;;
58896;SDS011;44677;52.378;10.400;2023-06-22T09:08:28;12.00;;;10.60;;
58896;SDS011;44677;52.378;10.400;2023-06-22T09:10:53;13.00;;;10.40;;
58896;SDS011;44677;52.378;10.400;2023-06-22T09:13:19;11.60;;;10.40;;
58896;SDS011;44677;52.378;10.400;2023-06-22T09:15:44;13.90;;;10.20;;
58896;SDS011;44677;52.378;10.400;2023-06-22T09:18:10;11.80;;;10.50;;
58896;SDS011;44677;52.378;10.400;2023-06-22T09:20:39;13.10;;;10.70;;
58896;SDS011;44677;52.378;10.400;2023-06-22T09:23:05;11.10;;;10.00;;
58896;SDS011;44677;52.378;10.400;2023-06-22T09:25:30;12.20;;;10.80;;
58896;SDS011;44677;52.378;10.400;2023-06-22T09:27:56;11.60;;;10.30;;
58896;SDS011;44677;52.378;10.400;2023-06-22T09:30:21;13.10;;;10.30;;
58896;SDS011;44677;52.378;10.400;2023-06-22T09:32:47;11.10;;;10.00;;
58896;SDS011;44677;52.378;10.400;2023-06-22T09:35:12;11.20;;;10.10;;
58896;SDS011;44677;52.378;10.400;2023-06-22T09:37:38;12.00;;;10.40;;
58896;SDS011;44677;52.378;10.400;2023-06-22T09:40:05;11.00;;;9.70;;
58896;SDS011;44677;52.378;10.400;2023-06-22T09:42:36;13.20;;;11.00;;
58896;SDS011;44677;52.378;10.400;2023-06-22T09:45:02;16.70;;;11.30;;
58896;SDS011;44677;52.378;10.400;2023-06-22T09:47:28;11.60;;;10.50;;
58896;SDS011;44677;52.378;10.400;2023-06-22T09:49:54;13.20;;;11.20;;
58896;SDS011;44677;52.378;10.400;2023-06-22T09:54:46;11.70;;;10.60;;
58896;SDS011;44677;52.378;10.400;2023-06-22T09:57:11;11.50;;;10.00;;
58896;SDS011;44677;52.378;10.400;2023-06-22T09:59:37;12.40;;;11.20;;
58896;SDS011;44677;52.378;10.400;2023-06-22T10:02:02;12.80;;;11.60;;
58896;SDS011;44677;52.378;10.400;2023-06-22T10:04:28;12.10;;;10.80;;
58896;SDS011;44677;52.378;10.400;2023-06-22T10:06:53;13.30;;;11.90;;
58896;SDS011;44677;52.378;10.400;2023-06-22T10:09:19;12.40;;;11.20;;
58896;SDS011;44677;52.378;10.400;2023-06-22T10:11:44;12.40;;;10.80;;
58896;SDS011;44677;52.378;10.400;2023-06-22T10:14:10;13.00;;;11.50;;
58896;SDS011;44677;52.378;10.400;2023-06-22T10:16:36;12.10;;;10.90;;
58896;SDS011;44677;52.378;10.400;2023-06-22T10:19:01;14.00;;;10.60;;
58896;SDS011;44677;52.378;10.400;2023-06-22T10:21:27;12.70;;;11.50;;
58896;SDS011;44677;52.378;10.400;2023-06-22T10:23:53;12.50;;;11.40;;
58896;SDS011;44677;52.378;10.400;2023-06-22T10:26:19;13.40;;;12.10;;
58896;SDS011;44677;52.378;10.400;2023-06-22T10:28:44;12.40;;;11.20;;
58896;SDS011;44677;52.378;10.400;2023-06-22T10:31:10;12.60;;;11.50;;
58896;SDS011;44677;52.378;10.400;2023-06-22T10:33:35;13.70;;;11.20;;
58896;SDS011;44677;52.378;10.400;2023-06-22T10:36:01;13.30;;;11.90;;
58896;SDS011;44677;52.378;10.400;2023-06-22T10:38:26;12.20;;;11.10;;
58896;SDS011;44677;52.378;10.400;2023-06-22T10:40:51;12.00;;;10.90;;
58896;SDS011;44677;52.378;10.400;2023-06-22T10:43:17;12.00;;;10.80;;
58896;SDS011;44677;52.378;10.400;2023-06-22T10:45:42;12.00;;;11.00;;
58896;SDS011;44677;52.378;10.400;2023-06-22T10:48:07;13.00;;;11.40;;
58896;SDS011;44677;52.378;10.400;2023-06-22T10:50:33;12.80;;;11.60;;
58896;SDS011;44677;52.378;10.400;2023-06-22T10:52:58;12.20;;;10.80;;
58896;SDS011;44677;52.378;10.400;2023-06-22T10:55:24;13.00;;;11.70;;
58896;SDS011;44677;52.378;10.400;2023-06-22T10:57:49;12.60;;;11.40;;
58896;SDS011;44677;52.378;10.400;2023-06-22T11:00:15;12.90;;;11.70;;
58896;SDS011;44677;52.378;10.400;2023-06-22T11:02:40;14.60;;;12.00;;
58896;SDS011;44677;52.378;10.400;2023-06-22T11:05:06;12.10;;;10.90;;
58896;SDS011;44677;52.378;10.400;2023-06-22T11:07:32;11.40;;;10.30;;
58896;SDS011;44677;52.378;10.400;2023-06-22T11:09:58;11.70;;;10.50;;
58896;SDS011;44677;52.378;10.400;2023-06-22T11:12:23;10.90;;;9.70;;
58896;SDS011;44677;52.378;10.400;2023-06-22T11:14:49;31.90;;;11.00;;
58896;SDS011;44677;52.378;10.400;2023-06-22T11:17:17;18.80;;;10.40;;
58896;SDS011;44677;52.378;10.400;2023-06-22T11:19:43;27.50;;;11.40;;
58896;SDS011;44677;52.378;10.400;2023-06-22T11:22:09;11.40;;;10.10;;
58896;SDS011;44677;52.378;10.400;2023-06-22T11:24:34;10.90;;;9.80;;
58896;SDS011;44677;52.378;10.400;2023-06-22T11:27:00;12.30;;;10.10;;
58896;SDS011;44677;52.378;10.400;2023-06-22T11:29:25;11.60;;;10.40;;
58896;SDS011;44677;52.378;10.400;2023-06-22T11:31:51;11.30;;;10.20;;
58896;SDS011;44677;52.378;10.400;2023-06-22T11:34:16;13.10;;;11.30;;
58896;SDS011;44677;52.378;10.400;2023-06-22T11:36:41;12.40;;;10.80;;
58896;SDS011;44677;52.378;10.400;2023-06-22T11:39:08;11.70;;;10.50;;
58896;SDS011;44677;52.378;10.400;2023-06-22T11:41:34;11.80;;;10.40;;
58896;SDS011;44677;52.378;10.400;2023-06-22T11:44:00;10.60;;;9.60;;
58896;SDS011;44677;52.378;10.400;2023-06-22T11:46:25;12.30;;;11.10;;
58896;SDS011;44677;52.378;10.400;2023-06-22T11:48:51;12.60;;;11.40;;
58896;SDS011;44677;52.378;10.400;2023-06-22T11:51:16;11.50;;;10.40;;
58896;SDS011;44677;52.378;10.400;2023-06-22T11:53:41;11.00;;;9.90;;
58896;SDS011;44677;52.378;10.400;2023-06-22T11:56:07;12.70;;;10.40;;
58896;SDS011;44677;52.378;10.400;2023-06-22T11:58:32;12.80;;;10.20;;
58896;SDS011;44677;52.378;10.400;2023-06-22T12:00:58;10.30;;;9.30;;
58896;SDS011;44677;52.378;10.400;2023-06-22T12:03:23;10.40;;;9.00;;
58896;SDS011;44677;52.378;10.400;2023-06-22T12:05:49;9.30;;;8.40;;
58896;SDS011;44677;52.378;10.400;2023-06-22T12:08:16;8.50;;;7.70;;
58896;SDS011;44677;52.378;10.400;2023-06-22T12:10:42;8.80;;;8.00;;
58896;SDS011;44677;52.378;10.400;2023-06-22T12:13:07;8.10;;;7.30;;
58896;SDS011;44677;52.378;10.400;2023-06-22T12:15:32;8.10;;;7.40;;
58896;SDS011;44677;52.378;10.400;2023-06-22T12:17:58;8.30;;;7.60;;
58896;SDS011;44677;52.378;10.400;2023-06-22T12:20:23;10.00;;;8.00;;
58896;SDS011;44677;52.378;10.400;2023-06-22T12:22:49;8.70;;;7.90;;
58896;SDS011;44677;52.378;10.400;2023-06-22T12:25:16;10.00;;;8.30;;
58896;SDS011;44677;52.378;10.400;2023-06-22T12:27:42;8.40;;;7.50;;
58896;SDS011;44677;52.378;10.400;2023-06-22T12:30:08;9.50;;;8.00;;
58896;SDS011;44677;52.378;10.400;2023-06-22T12:32:33;8.60;;;7.90;;
58896;SDS011;44677;52.378;10.400;2023-06-22T12:34:59;9.50;;;8.40;;
58896;SDS011;44677;52.378;10.400;2023-06-22T12:37:24;8.40;;;7.50;;
58896;SDS011;44677;52.378;10.400;2023-06-22T12:39:50;7.70;;;7.00;;
58896;SDS011;44677;52.378;10.400;2023-06-22T12:42:16;8.50;;;7.60;;
58896;SDS011;44677;52.378;10.400;2023-06-22T12:44:41;8.20;;;7.50;;
58896;SDS011;44677;52.378;10.400;2023-06-22T12:49:36;7.80;;;7.10;;
58896;SDS011;44677;52.378;10.400;2023-06-22T12:52:02;8.50;;;7.70;;
58896;SDS011;44677;52.378;10.400;2023-06-22T12:56:54;8.10;;;7.40;;
58896;SDS011;44677;52.378;10.400;2023-06-22T12:59:20;8.10;;;7.20;;
58896;SDS011;44677;52.378;10.400;2023-06-22T13:01:45;8.10;;;7.40;;
58896;SDS011;44677;52.378;10.400;2023-06-22T13:04:11;8.70;;;7.90;;
58896;SDS011;44677;52.378;10.400;2023-06-22T13:06:40;7.90;;;7.20;;
58896;SDS011;44677;52.378;10.400;2023-06-22T13:09:12;8.80;;;7.90;;
58896;SDS011;44677;52.378;10.400;2023-06-22T13:11:37;8.80;;;7.80;;
58896;SDS011;44677;52.378;10.400;2023-06-22T13:14:03;7.90;;;7.20;;
58896;SDS011;44677;52.378;10.400;2023-06-22T13:16:28;8.30;;;7.40;;
58896;SDS011;44677;52.378;10.400;2023-06-22T13:18:53;8.90;;;7.80;;
58896;SDS011;44677;52.378;10.400;2023-06-22T13:21:19;10.00;;;7.20;;
58896;SDS011;44677;52.378;10.400;2023-06-22T13:23:44;8.90;;;7.50;;
58896;SDS011;44677;52.378;10.400;2023-06-22T13:26:10;7.70;;;7.00;;
58896;SDS011;44677;52.378;10.400;2023-06-22T13:28:35;8.50;;;7.70;;
58896;SDS011;44677;52.378;10.400;2023-06-22T13:31:00;7.60;;;6.90;;
58896;SDS011;44677;52.378;10.400;2023-06-22T13:33:26;8.70;;;7.80;;
58896;SDS011;44677;52.378;10.400;2023-06-22T13:35:51;7.80;;;7.10;;
58896;SDS011;44677;52.378;10.400;2023-06-22T13:38:17;8.20;;;7.20;;
58896;SDS011;44677;52.378;10.400;2023-06-22T13:40:43;8.90;;;7.50;;
58896;SDS011;44677;52.378;10.400;2023-06-22T13:43:08;8.10;;;7.40;;
58896;SDS011;44677;52.378;10.400;2023-06-22T13:45:34;8.90;;;7.60;;
58896;SDS011;44677;52.378;10.400;2023-06-22T13:47:59;8.90;;;7.90;;
58896;SDS011;44677;52.378;10.400;2023-06-22T13:50:24;8.60;;;7.70;;
58896;SDS011;44677;52.378;10.400;2023-06-22T13:52:50;8.90;;;7.60;;
58896;SDS011;44677;52.378;10.400;2023-06-22T13:55:15;8.80;;;8.10;;
58896;SDS011;44677;52.378;10.400;2023-06-22T13:57:41;9.50;;;8.70;;
58896;SDS011;44677;52.378;10.400;2023-06-22T14:00:07;9.40;;;8.60;;
58896;SDS011;44677;52.378;10.400;2023-06-22T14:02:39;13.10;;;9.00;;
58896;SDS011;44677;52.378;10.400;2023-06-22T14:05:06;9.90;;;9.00;;
58896;SDS011;44677;52.378;10.400;2023-06-22T14:07:31;11.80;;;8.70;;
58896;SDS011;44677;52.378;10.400;2023-06-22T14:09:57;9.70;;;8.80;;
58896;SDS011;44677;52.378;10.400;2023-06-22T14:12:23;10.20;;;8.80;;
58896;SDS011;44677;52.378;10.400;2023-06-22T14:14:49;8.70;;;7.90;;
58896;SDS011;44677;52.378;10.400;2023-06-22T14:17:15;9.00;;;8.10;;
58896;SDS011;44677;52.378;10.400;2023-06-22T14:19:40;9.60;;;8.70;;
58896;SDS011;44677;52.378;10.400;2023-06-22T14:22:05;10.50;;;9.20;;
58896;SDS011;44677;52.378;10.400;2023-06-22T14:24:31;9.70;;;8.80;;
58896;SDS011;44677;52.378;10.400;2023-06-22T14:26:56;10.20;;;8.80;;
58896;SDS011;44677;52.378;10.400;2023-06-22T14:29:22;10.10;;;9.20;;
58896;SDS011;44677;52.378;10.400;2023-06-22T14:31:48;9.40;;;8.50;;
58896;SDS011;44677;52.378;10.400;2023-06-22T14:34:14;9.40;;;8.40;;
58896;SDS011;44677;52.378;10.400;2023-06-22T14:39:05;9.90;;;9.00;;
58896;SDS011;44677;52.378;10.400;2023-06-22T14:41:31;11.60;;;10.50;;
58896;SDS011;44677;52.378;10.400;2023-06-22T14:43:56;10.80;;;9.70;;
58896;SDS011;44677;52.378;10.400;2023-06-22T14:46:22;14.50;;;9.70;;
58896;SDS011;44677;52.378;10.400;2023-06-22T14:48:47;10.40;;;9.30;;